Time;durP1;ratioP1;P1;durP2;ratioP2;P2;SDS_P1;SDS_P2;PMS_P1;PMS_P2;Temp;Humidity;BMP_temperature;BMP_pressure;BME280_temperature;BME280_humidity;BME280_pressure;Samples;Min_cycle;Max_cycle;Signal;HPM_P1;HPM_P2
2022/12/29 00:01:08;;;;;;;0.10;0.10;;;8.30;99.90;226.50;231333.00;;;;5031873;28;20222;-75
2022/12/29 00:03:36;;;;;;;0.10;0.10;;;8.30;99.90;226.50;231333.00;;;;5040580;28;20194;-74
2022/12/29 00:06:06;;;;;;;0.10;0.10;;;8.30;99.90;226.50;231333.00;;;;5043821;28;20252;-74
2022/12/29 00:08:40;;;;;;;0.10;0.10;;;8.30;99.90;226.50;231333.00;;;;5044715;28;20198;-75
2022/12/29 00:11:09;;;;;;;0.10;0.10;;;8.30;99.90;226.50;231333.00;;;;5042390;28;20510;-75
2022/12/29 00:16:24;;;;;;;0.10;0.10;;;8.40;99.90;226.50;231333.00;;;;5039614;28;20218;-74
2022/12/29 00:18:52;;;;;;;0.10;0.10;;;8.40;99.90;226.50;231333.00;;;;5038827;28;20202;-74
2022/12/29 00:35:38;;;;;;;0.00;0.00;;;8.50;99.90;226.50;231333.00;;;;5039120;28;20206;-74
2022/12/29 00:46:28;;;;;;;0.10;0.10;;;8.50;99.90;226.50;231333.00;;;;5047970;28;20639;-73
2022/12/29 00:51:58;;;;;;;0.10;0.10;;;8.60;99.90;226.50;231333.00;;;;4955393;28;20205;-73
2022/12/29 00:54:28;;;;;;;0.10;0.10;;;8.60;99.90;226.50;231333.00;;;;4939018;29;20217;-74
2022/12/29 00:56:56;;;;;;;0.10;0.10;;;8.70;99.90;226.50;231333.00;;;;4990834;28;20226;-72
2022/12/29 00:59:24;;;;;;;0.10;0.10;;;8.60;99.90;226.50;231333.00;;;;5045665;28;20257;-73
2022/12/29 01:01:54;;;;;;;0.10;0.10;;;8.60;99.90;226.50;231333.00;;;;5041694;28;20304;-73
2022/12/29 01:04:24;;;;;;;0.00;0.00;;;8.70;99.90;226.50;231333.00;;;;5038652;28;20580;-73
2022/12/29 01:06:53;;;;;;;0.10;0.10;;;8.70;99.90;226.50;231333.00;;;;5026546;28;20272;-73
2022/12/29 01:12:10;;;;;;;0.10;0.10;;;8.60;99.90;226.50;231333.00;;;;5013342;28;20253;-73
2022/12/29 01:14:39;;;;;;;0.10;0.10;;;8.60;99.90;226.50;231333.00;;;;5031031;28;20232;-74
2022/12/29 01:17:08;;;;;;;0.10;0.10;;;8.60;99.90;226.50;231333.00;;;;5045222;28;20218;-74
2022/12/29 01:19:36;;;;;;;0.10;0.10;;;8.60;99.90;226.50;231333.00;;;;5016726;28;20249;-74
2022/12/29 01:22:04;;;;;;;0.10;0.10;;;8.70;99.90;226.50;231333.00;;;;5022491;28;20218;-73
2022/12/29 01:24:32;;;;;;;0.10;0.10;;;8.70;99.90;226.50;231333.00;;;;5029738;28;20699;-73
2022/12/29 01:27:00;;;;;;;0.10;0.10;;;8.80;99.90;226.50;231333.00;;;;5019659;28;20249;-72
2022/12/29 01:29:29;;;;;;;0.10;0.10;;;8.80;99.90;226.50;231333.00;;;;5029088;28;20682;-73
2022/12/29 01:31:57;;;;;;;0.10;0.10;;;8.80;99.90;226.50;231333.00;;;;5023049;28;20619;-73
2022/12/29 01:34:25;;;;;;;0.10;0.10;;;8.80;99.90;226.50;231333.00;;;;5020890;28;20218;-73
2022/12/29 01:36:53;;;;;;;0.10;0.10;;;8.80;99.90;226.50;231333.00;;;;5028579;28;20796;-73
2022/12/29 01:39:21;;;;;;;0.10;0.10;;;8.70;99.90;226.50;231333.00;;;;5024398;28;20222;-73
2022/12/29 01:41:49;;;;;;;0.10;0.10;;;8.80;99.90;226.50;231333.00;;;;5033603;28;20206;-73
2022/12/29 01:44:52;;;;;;;0.10;0.10;;;8.80;99.90;226.50;231333.00;;;;5036252;28;20605;-73
2022/12/29 01:47:34;;;;;;;0.10;0.10;;;8.70;99.90;226.50;231333.00;;;;5043217;28;20259;-73
2022/12/29 01:50:09;;;;;;;0.10;0.10;;;8.80;99.90;226.50;231333.00;;;;5010930;28;20603;-73
2022/12/29 01:52:44;;;;;;;0.10;0.10;;;8.80;99.90;226.50;231333.00;;;;5040933;28;20214;-72
2022/12/29 01:55:13;;;;;;;0.10;0.10;;;8.90;99.90;226.50;231333.00;;;;5018332;28;20199;-73
2022/12/29 01:57:49;;;;;;;0.10;0.10;;;8.90;99.90;226.50;231333.00;;;;5042585;28;20698;-73
2022/12/29 02:00:19;;;;;;;0.10;0.10;;;9.00;99.90;226.50;231333.00;;;;5034472;28;20190;-73
2022/12/29 02:02:52;;;;;;;0.10;0.10;;;9.00;99.90;226.50;231333.00;;;;5043131;28;20211;-73
2022/12/29 02:05:29;;;;;;;0.10;0.10;;;9.10;99.90;226.50;231333.00;;;;5037066;28;20203;-74
2022/12/29 02:07:57;;;;;;;0.10;0.10;;;9.10;99.90;226.50;231333.00;;;;5015949;28;20640;-73
2022/12/29 02:10:30;;;;;;;0.10;0.10;;;9.10;99.90;226.50;231333.00;;;;5016744;28;20199;-74
2022/12/29 02:12:58;;;;;;;0.10;0.10;;;9.10;99.90;226.50;231333.00;;;;5011396;28;20218;-73
2022/12/29 02:15:49;;;;;;;0.10;0.10;;;9.00;99.90;226.50;231333.00;;;;5013656;28;20199;-73
2022/12/29 02:18:33;;;;;;;0.10;0.10;;;9.10;99.90;226.50;231333.00;;;;5039981;28;20261;-73
2022/12/29 02:21:44;;;;;;;0.00;0.00;;;9.10;99.90;226.50;231333.00;;;;5010040;28;20231;-74
2022/12/29 02:25:01;;;;;;;0.10;0.10;;;9.20;99.90;226.50;231333.00;;;;5034328;28;20195;-73
2022/12/29 02:27:51;;;;;;;0.10;0.10;;;9.20;99.90;226.50;231333.00;;;;5015922;28;20276;-74
2022/12/29 02:30:48;;;;;;;0.10;0.10;;;9.20;99.90;226.50;231333.00;;;;5026739;28;20193;-74
2022/12/29 02:33:32;;;;;;;0.10;0.10;;;9.20;99.90;226.50;231333.00;;;;5036723;28;20207;-74
2022/12/29 02:36:15;;;;;;;0.10;0.10;;;9.20;99.90;226.50;231333.00;;;;5018606;28;20694;-75
2022/12/29 02:39:02;;;;;;;0.10;0.10;;;9.20;99.90;226.50;231333.00;;;;5019511;28;20619;-75
2022/12/29 02:41:40;;;;;;;0.10;0.10;;;9.30;99.90;226.50;231333.00;;;;5040721;28;20221;-74
2022/12/29 02:44:17;;;;;;;0.10;0.10;;;9.30;99.90;226.50;231333.00;;;;5038486;28;20198;-74
2022/12/29 02:46:57;;;;;;;0.10;0.10;;;9.30;99.90;226.50;231333.00;;;;5037889;28;20241;-75
2022/12/29 02:49:34;;;;;;;0.10;0.10;;;9.30;99.90;226.50;231333.00;;;;5028206;28;20252;-74
2022/12/29 02:52:08;;;;;;;0.10;0.10;;;9.40;99.90;226.50;231333.00;;;;5036352;28;20195;-74
2022/12/29 02:54:40;;;;;;;0.10;0.10;;;9.40;99.90;226.50;231333.00;;;;5033082;28;20187;-74
2022/12/29 02:57:16;;;;;;;0.10;0.10;;;9.40;99.90;226.50;231333.00;;;;5014665;28;20227;-75
2022/12/29 02:59:49;;;;;;;0.10;0.10;;;9.40;99.90;226.50;231333.00;;;;5043886;28;20208;-74
2022/12/29 03:02:40;;;;;;;0.10;0.10;;;9.40;99.90;226.50;231333.00;;;;5015313;28;20216;-74
2022/12/29 03:05:40;;;;;;;0.10;0.10;;;9.30;99.90;226.50;231333.00;;;;5042898;28;20189;-74
2022/12/29 03:08:22;;;;;;;0.10;0.10;;;9.30;99.90;226.50;231333.00;;;;5043887;28;20198;-72
2022/12/29 03:11:01;;;;;;;0.10;0.10;;;9.30;99.90;226.50;231333.00;;;;5016575;28;20775;-72
2022/12/29 03:16:36;;;;;;;0.10;0.10;;;9.30;99.90;226.50;231333.00;;;;5021379;28;20226;-71
2022/12/29 03:19:13;;;;;;;0.10;0.10;;;9.30;99.90;226.50;231333.00;;;;5030140;28;20757;-72
2022/12/29 03:24:44;;;;;;;0.10;0.10;;;9.20;99.90;226.50;231333.00;;;;5015763;28;20290;-72
2022/12/29 03:27:22;;;;;;;0.10;0.10;;;9.20;99.90;226.50;231333.00;;;;5017509;28;20226;-74
2022/12/29 03:29:55;;;;;;;0.10;0.10;;;9.10;99.90;226.50;231333.00;;;;5019924;28;20280;-73
2022/12/29 03:32:31;;;;;;;0.10;0.10;;;9.10;99.90;226.50;231333.00;;;;5017596;28;20761;-73
2022/12/29 03:35:02;;;;;;;0.10;0.10;;;9.10;99.90;226.50;231333.00;;;;5041471;28;20189;-72
2022/12/29 03:37:37;;;;;;;0.10;0.10;;;9.10;99.90;226.50;231333.00;;;;5019009;28;20218;-73
2022/12/29 03:40:08;;;;;;;0.10;0.10;;;9.10;99.90;226.50;231333.00;;;;5015047;28;20717;-72
2022/12/29 03:42:39;;;;;;;0.10;0.10;;;9.10;99.90;226.50;231333.00;;;;5032213;28;20690;-73
2022/12/29 03:45:11;;;;;;;0.10;0.10;;;9.10;99.90;226.50;231333.00;;;;5011697;28;20200;-74
2022/12/29 03:47:39;;;;;;;0.03;0.03;;;9.20;99.90;226.50;231333.00;;;;5039261;28;20641;-73
2022/12/29 03:50:09;;;;;;;0.10;0.10;;;9.20;99.90;226.50;231333.00;;;;5021537;28;20253;-73
2022/12/29 03:52:40;;;;;;;0.10;0.10;;;9.20;99.90;226.50;231333.00;;;;5016558;28;20194;-72
2022/12/29 03:55:09;;;;;;;0.10;0.10;;;9.20;99.90;226.50;231333.00;;;;5033861;28;20738;-74
2022/12/29 03:57:39;;;;;;;0.10;0.10;;;9.20;99.90;226.50;231333.00;;;;5021564;28;20218;-73
2022/12/29 04:00:14;;;;;;;0.10;0.10;;;9.20;99.90;226.50;231333.00;;;;5036194;28;20199;-73
2022/12/29 04:02:42;;;;;;;0.10;0.10;;;9.20;99.90;226.50;231333.00;;;;5036505;28;20226;-73
2022/12/29 04:05:17;;;;;;;0.10;0.10;;;9.30;99.90;226.50;231333.00;;;;5024823;28;20196;-72
2022/12/29 04:07:45;;;;;;;0.10;0.10;;;9.40;99.90;226.50;231333.00;;;;5024835;28;20227;-74
2022/12/29 04:10:15;;;;;;;0.10;0.10;;;9.40;99.90;226.50;231333.00;;;;5023969;28;20306;-72
2022/12/29 04:12:46;;;;;;;0.10;0.10;;;9.40;99.90;226.50;231333.00;;;;5023581;28;20266;-72
2022/12/29 04:15:14;;;;;;;0.10;0.10;;;9.50;99.90;226.50;231333.00;;;;5022821;28;20609;-72
2022/12/29 04:17:42;;;;;;;0.10;0.10;;;9.50;99.90;226.50;231333.00;;;;5016680;28;20710;-72
2022/12/29 04:23:03;;;;;;;0.10;0.10;;;9.60;99.90;226.50;231333.00;;;;5029934;28;20252;-72
2022/12/29 04:25:33;;;;;;;0.10;0.10;;;9.70;99.90;226.50;231333.00;;;;5037683;28;20190;-72
2022/12/29 04:28:01;;;;;;;0.10;0.10;;;9.70;99.90;226.50;231333.00;;;;5023834;28;20215;-72
2022/12/29 04:30:54;;;;;;;0.10;0.10;;;9.70;99.90;226.50;231333.00;;;;5019529;28;20253;-72
2022/12/29 04:33:25;;;;;;;0.10;0.10;;;9.70;99.90;226.50;231333.00;;;;5015041;28;20576;-72
2022/12/29 04:35:54;;;;;;;0.10;0.10;;;9.60;99.90;226.50;231333.00;;;;5038612;28;20214;-72
2022/12/29 04:38:26;;;;;;;0.10;0.10;;;9.60;99.90;226.50;231333.00;;;;5025890;28;20222;-73
2022/12/29 04:40:54;;;;;;;0.05;0.05;;;9.60;99.90;226.50;231333.00;;;;5025823;28;20201;-76
2022/12/29 04:43:24;;;;;;;0.10;0.10;;;9.60;99.90;226.50;231333.00;;;;5025551;28;20223;-71
2022/12/29 04:46:11;;;;;;;0.10;0.10;;;9.60;99.90;226.50;231333.00;;;;5040907;28;20240;-72
2022/12/29 04:48:47;;;;;;;0.10;0.10;;;9.50;99.90;226.50;231333.00;;;;5019185;28;20226;-72
2022/12/29 04:51:26;;;;;;;0.10;0.10;;;9.50;99.90;226.50;231333.00;;;;5022015;28;20215;-73
2022/12/29 04:53:56;;;;;;;0.10;0.10;;;9.50;99.90;226.50;231333.00;;;;5006438;28;20675;-72
2022/12/29 04:56:25;;;;;;;0.10;0.10;;;9.50;99.90;226.50;231333.00;;;;5023773;28;20218;-71
2022/12/29 04:58:53;;;;;;;0.10;0.10;;;9.40;99.90;226.50;231333.00;;;;5034623;28;20210;-72
2022/12/29 05:01:22;;;;;;;0.10;0.10;;;9.40;99.90;226.50;231333.00;;;;5023183;28;20291;-71
2022/12/29 05:03:51;;;;;;;0.10;0.10;;;9.40;99.90;226.50;231333.00;;;;5017238;28;20218;-72
2022/12/29 05:06:20;;;;;;;0.10;0.10;;;9.40;99.90;226.50;231333.00;;;;5026239;28;20222;-73
2022/12/29 05:08:50;;;;;;;0.10;0.10;;;9.40;99.90;226.50;231333.00;;;;5026404;28;20199;-72
2022/12/29 05:11:19;;;;;;;0.10;0.10;;;9.30;99.90;226.50;231333.00;;;;5029740;28;20202;-72
2022/12/29 05:13:49;;;;;;;0.10;0.10;;;9.30;99.90;226.50;231333.00;;;;5026412;28;20203;-73
2022/12/29 05:16:18;;;;;;;0.10;0.10;;;9.20;99.90;226.50;231333.00;;;;5026639;28;20284;-73
2022/12/29 05:18:46;;;;;;;0.10;0.10;;;9.20;99.90;226.50;231333.00;;;;5022318;28;20203;-73
2022/12/29 05:21:14;;;;;;;0.10;0.10;;;9.20;99.90;226.50;231333.00;;;;5014389;28;20207;-73
2022/12/29 05:23:44;;;;;;;0.00;0.00;;;9.20;99.90;226.50;231333.00;;;;5011928;28;20273;-73
2022/12/29 05:26:14;;;;;;;0.08;0.08;;;9.20;99.90;226.50;231333.00;;;;5017717;28;20245;-72
2022/12/29 05:29:05;;;;;;;0.10;0.10;;;9.10;99.90;226.50;231333.00;;;;5034288;28;20736;-71
2022/12/29 05:31:35;;;;;;;0.10;0.10;;;9.10;99.90;226.50;231333.00;;;;5031895;28;20199;-73
2022/12/29 05:34:05;;;;;;;0.10;0.10;;;9.10;99.90;226.50;231333.00;;;;5015985;28;20295;-73
2022/12/29 05:36:33;;;;;;;0.10;0.10;;;9.00;99.90;226.50;231333.00;;;;5009635;28;20210;-73
2022/12/29 05:39:07;;;;;;;0.10;0.10;;;9.00;99.90;226.50;231333.00;;;;5018977;28;20195;-73
2022/12/29 05:41:36;;;;;;;0.10;0.10;;;9.00;99.90;226.50;231333.00;;;;5015348;28;20203;-73
2022/12/29 05:44:24;;;;;;;0.10;0.10;;;8.90;99.90;226.50;231333.00;;;;5038116;28;20384;-73
2022/12/29 05:47:12;;;;;;;0.10;0.10;;;8.90;99.90;226.50;231333.00;;;;5028025;28;20233;-73
2022/12/29 05:49:47;;;;;;;0.10;0.10;;;8.90;99.90;226.50;231333.00;;;;5022992;28;20199;-72
2022/12/29 05:52:47;;;;;;;0.10;0.10;;;8.90;99.90;226.50;231333.00;;;;5003463;28;20199;-73
2022/12/29 05:55:15;;;;;;;0.10;0.10;;;8.80;99.90;226.50;231333.00;;;;5030405;28;20229;-72
2022/12/29 05:57:47;;;;;;;0.10;0.10;;;8.70;99.90;226.50;231333.00;;;;5015889;28;20219;-72
2022/12/29 06:00:19;;;;;;;0.10;0.10;;;8.70;99.90;226.50;231333.00;;;;5024668;28;20269;-72
2022/12/29 06:02:47;;;;;;;0.10;0.10;;;8.60;99.90;226.50;231333.00;;;;5044685;28;20194;-71
2022/12/29 06:05:18;;;;;;;0.10;0.10;;;8.60;99.90;226.50;231333.00;;;;5020790;28;20227;-72
2022/12/29 06:07:46;;;;;;;0.10;0.10;;;8.60;99.90;226.50;231333.00;;;;5015473;28;20227;-71
2022/12/29 06:10:17;;;;;;;0.10;0.10;;;8.60;99.90;226.50;231333.00;;;;5025267;28;20253;-72
2022/12/29 06:12:50;;;;;;;0.10;0.10;;;8.60;99.90;226.50;231333.00;;;;5031582;28;20268;-72
2022/12/29 06:15:20;;;;;;;0.10;0.10;;;8.60;99.90;226.50;231333.00;;;;5007985;28;20265;-73
2022/12/29 06:17:50;;;;;;;0.10;0.10;;;8.60;99.90;226.50;231333.00;;;;5026259;28;20221;-72
2022/12/29 06:20:18;;;;;;;0.10;0.10;;;8.60;99.90;226.50;231333.00;;;;5041022;28;20194;-73
2022/12/29 06:22:46;;;;;;;0.10;0.10;;;8.50;99.90;226.50;231333.00;;;;5035927;28;20198;-72
2022/12/29 06:25:14;;;;;;;0.00;0.00;;;8.50;99.90;226.50;231333.00;;;;5031492;28;20240;-73
2022/12/29 06:27:44;;;;;;;0.10;0.10;;;8.50;99.90;226.50;231333.00;;;;5020364;28;20710;-72
2022/12/29 06:30:14;;;;;;;0.10;0.10;;;8.50;99.90;226.50;231333.00;;;;5020619;28;20203;-72
2022/12/29 06:32:45;;;;;;;0.10;0.10;;;8.50;99.90;226.50;231333.00;;;;5034020;28;20220;-73
2022/12/29 06:35:14;;;;;;;0.10;0.10;;;8.40;99.90;226.50;231333.00;;;;5028270;28;20333;-73
2022/12/29 06:37:46;;;;;;;0.10;0.10;;;8.40;99.90;226.50;231333.00;;;;5011197;28;20702;-74
2022/12/29 06:40:15;;;;;;;0.10;0.10;;;8.40;99.90;226.50;231333.00;;;;5015826;28;20230;-74
2022/12/29 06:43:02;;;;;;;0.10;0.10;;;8.30;99.90;226.50;231333.00;;;;5012284;28;20294;-73
2022/12/29 06:45:43;;;;;;;0.10;0.10;;;8.30;99.90;226.50;231333.00;;;;5015585;28;20227;-73
2022/12/29 06:48:13;;;;;;;0.10;0.10;;;8.30;99.90;226.50;231333.00;;;;5031638;28;20247;-74
2022/12/29 06:50:41;;;;;;;0.10;0.10;;;8.20;99.90;226.50;231333.00;;;;5030492;28;20194;-73
2022/12/29 06:53:09;;;;;;;0.10;0.10;;;8.20;99.90;226.50;231333.00;;;;5034277;28;20191;-72
2022/12/29 06:55:38;;;;;;;0.10;0.10;;;8.20;99.90;226.50;231333.00;;;;5040881;28;20249;-72
2022/12/29 06:58:06;;;;;;;0.10;0.10;;;8.20;99.90;226.50;231333.00;;;;5032062;28;20618;-72
2022/12/29 07:00:34;;;;;;;0.10;0.10;;;8.20;99.90;226.50;231333.00;;;;5035702;28;20277;-72
2022/12/29 07:03:02;;;;;;;0.10;0.10;;;8.20;99.90;226.50;231333.00;;;;5043264;28;20248;-71
2022/12/29 07:05:32;;;;;;;0.10;0.10;;;8.20;99.90;226.50;231333.00;;;;5042887;28;20780;-72
2022/12/29 07:08:00;;;;;;;0.10;0.10;;;8.30;99.90;226.50;231333.00;;;;5042793;28;20536;-73
2022/12/29 07:10:29;;;;;;;0.10;0.10;;;8.30;99.90;226.50;231333.00;;;;5031619;28;20214;-72
2022/12/29 07:12:57;;;;;;;0.10;0.10;;;8.30;99.90;226.50;231333.00;;;;5035474;28;20290;-72
2022/12/29 07:15:25;;;;;;;0.10;0.10;;;8.30;99.90;226.50;231333.00;;;;5031165;28;20674;-73
2022/12/29 07:17:53;;;;;;;0.10;0.10;;;8.30;99.90;226.50;231333.00;;;;5037211;28;20629;-74
2022/12/29 07:20:20;;;;;;;0.10;0.10;;;8.30;99.90;226.50;231333.00;;;;5039909;28;20880;-74
2022/12/29 07:22:55;;;;;;;0.10;0.10;;;8.30;99.90;226.50;231333.00;;;;5044560;28;20687;-72
2022/12/29 07:25:23;;;;;;;0.10;0.10;;;8.30;99.90;226.50;231333.00;;;;5036378;28;20693;-73
2022/12/29 07:27:51;;;;;;;0.10;0.10;;;8.30;99.90;226.50;231333.00;;;;5029422;28;20219;-72
2022/12/29 07:30:19;;;;;;;0.10;0.10;;;8.30;99.90;226.50;231333.00;;;;5031652;28;20188;-73
2022/12/29 07:32:47;;;;;;;0.10;0.10;;;8.30;99.90;226.50;231333.00;;;;5028438;28;20195;-74
2022/12/29 07:35:15;;;;;;;0.10;0.10;;;8.40;99.90;226.50;231333.00;;;;5026410;28;20203;-73
2022/12/29 07:37:44;;;;;;;0.10;0.10;;;8.40;99.90;226.50;231333.00;;;;5011295;28;20215;-73
2022/12/29 07:40:14;;;;;;;0.10;0.10;;;8.40;99.90;226.50;231333.00;;;;5022152;28;20666;-73
2022/12/29 07:42:42;;;;;;;0.10;0.10;;;8.40;99.90;226.50;231333.00;;;;5032364;28;20206;-73
2022/12/29 07:45:11;;;;;;;0.10;0.10;;;8.40;99.90;226.50;231333.00;;;;5028407;28;20229;-72
2022/12/29 07:48:05;;;;;;;0.10;0.10;;;8.40;99.90;226.50;231333.00;;;;5023740;28;20544;-73
2022/12/29 07:50:33;;;;;;;0.10;0.10;;;8.30;99.90;226.50;231333.00;;;;5025501;28;20609;-73
2022/12/29 07:53:01;;;;;;;0.10;0.10;;;8.30;99.90;226.50;231333.00;;;;5024569;28;20607;-72
2022/12/29 07:55:31;;;;;;;0.10;0.10;;;8.30;99.90;226.50;231333.00;;;;5032923;28;20284;-74
2022/12/29 07:57:59;;;;;;;0.10;0.10;;;8.30;99.90;226.50;231333.00;;;;5032514;28;20222;-73
2022/12/29 08:00:27;;;;;;;0.10;0.10;;;8.30;99.90;226.50;231333.00;;;;5038420;28;20394;-74
2022/12/29 08:02:55;;;;;;;0.00;0.00;;;8.20;99.90;226.50;231333.00;;;;5018913;28;20219;-73
2022/12/29 08:05:23;;;;;;;0.10;0.10;;;8.20;99.90;226.50;231333.00;;;;5026555;28;20266;-73
2022/12/29 08:07:51;;;;;;;0.05;0.05;;;8.20;99.90;226.50;231333.00;;;;5033939;28;20281;-72
2022/12/29 08:10:20;;;;;;;0.10;0.10;;;8.20;99.90;226.50;231333.00;;;;5035767;28;20203;-72
2022/12/29 08:12:50;;;;;;;0.10;0.10;;;8.20;99.90;226.50;231333.00;;;;5036158;28;20222;-72
2022/12/29 08:15:18;;;;;;;0.10;0.10;;;8.20;99.90;226.50;231333.00;;;;5033599;28;20207;-73
2022/12/29 08:17:46;;;;;;;0.10;0.10;;;8.30;99.90;226.50;231333.00;;;;5034525;28;20245;-72
2022/12/29 08:20:14;;;;;;;0.10;0.10;;;8.30;99.90;226.50;231333.00;;;;5031048;28;21521;-72
2022/12/29 08:22:42;;;;;;;0.10;0.10;;;8.30;99.90;226.50;231333.00;;;;5040767;28;20281;-72
2022/12/29 08:25:10;;;;;;;0.10;0.10;;;8.30;99.90;226.50;231333.00;;;;5036638;28;20219;-73
2022/12/29 08:27:37;;;;;;;0.10;0.10;;;8.40;99.90;226.50;231333.00;;;;5037111;28;20229;-73
2022/12/29 08:30:09;;;;;;;0.10;0.10;;;8.50;99.90;226.50;231333.00;;;;5036278;28;20217;-72
2022/12/29 08:32:37;;;;;;;0.10;0.10;;;8.60;99.90;226.50;231333.00;;;;5029766;28;20202;-72
2022/12/29 08:35:06;;;;;;;0.10;0.10;;;8.60;99.90;226.50;231333.00;;;;5044327;28;20195;-74
2022/12/29 08:37:34;;;;;;;0.10;0.10;;;8.60;99.90;226.50;231333.00;;;;5031252;28;20273;-73
2022/12/29 08:40:03;;;;;;;0.10;0.10;;;8.70;99.90;226.50;231333.00;;;;5041010;28;20725;-73
2022/12/29 08:42:32;;;;;;;0.10;0.10;;;8.80;99.90;226.50;231333.00;;;;5032966;28;20194;-72
2022/12/29 08:45:01;;;;;;;0.10;0.10;;;9.00;99.90;226.50;231333.00;;;;5039586;28;20219;-72
2022/12/29 08:47:34;;;;;;;0.10;0.10;;;9.30;99.90;226.50;231333.00;;;;5043168;28;20218;-72
2022/12/29 08:50:01;;;;;;;0.10;0.10;;;9.60;99.90;226.50;231333.00;;;;5038850;28;20544;-73
2022/12/29 08:52:29;;;;;;;0.10;0.10;;;9.80;99.90;226.50;231333.00;;;;5039155;28;20198;-74
2022/12/29 08:54:57;;;;;;;0.10;0.10;;;9.90;99.90;226.50;231333.00;;;;5039359;28;20556;-73
2022/12/29 08:57:25;;;;;;;0.10;0.10;;;10.00;99.90;226.50;231333.00;;;;5035936;28;20449;-73
2022/12/29 09:00:15;;;;;;;0.10;0.10;;;10.10;99.90;226.50;231333.00;;;;5040358;28;20254;-74
2022/12/29 09:02:45;;;;;;;0.10;0.10;;;10.20;99.90;226.50;231333.00;;;;5027735;28;20301;-73
2022/12/29 09:05:13;;;;;;;0.10;0.10;;;10.20;99.90;226.50;231333.00;;;;5025225;28;20218;-72
2022/12/29 09:07:41;;;;;;;0.10;0.10;;;10.20;99.90;226.50;231333.00;;;;5034081;28;20215;-74
2022/12/29 09:10:09;;;;;;;0.10;0.10;;;10.20;99.90;226.50;231333.00;;;;5029894;28;20615;-74
2022/12/29 09:12:37;;;;;;;0.10;0.10;;;10.10;99.90;226.50;231333.00;;;;5032859;28;20203;-74
2022/12/29 09:15:07;;;;;;;0.10;0.10;;;10.10;99.90;226.50;231333.00;;;;5036355;28;20207;-74
2022/12/29 09:17:41;;;;;;;0.10;0.10;;;10.10;99.90;226.50;231333.00;;;;5039627;28;20218;-74
2022/12/29 09:20:12;;;;;;;0.10;0.10;;;10.10;99.90;226.50;231333.00;;;;5039298;28;20203;-74
2022/12/29 09:22:40;;;;;;;0.10;0.10;;;10.10;99.90;226.50;231333.00;;;;5042233;28;20252;-74
2022/12/29 09:25:09;;;;;;;0.10;0.10;;;10.10;99.90;226.50;231333.00;;;;5036087;28;20227;-73
2022/12/29 09:27:38;;;;;;;0.10;0.10;;;10.10;99.90;226.50;231333.00;;;;5037505;28;20225;-74
2022/12/29 09:30:10;;;;;;;0.10;0.10;;;10.20;99.90;226.50;231333.00;;;;5034479;28;20199;-74
2022/12/29 09:32:38;;;;;;;0.10;0.10;;;10.20;99.90;226.50;231333.00;;;;5040482;28;20202;-75
2022/12/29 09:35:14;;;;;;;0.10;0.10;;;10.10;99.90;226.50;231333.00;;;;5037315;28;20198;-74
2022/12/29 09:37:42;;;;;;;0.00;0.00;;;10.20;99.90;226.50;231333.00;;;;5035195;28;20261;-74
2022/12/29 09:40:26;;;;;;;0.10;0.10;;;10.20;99.90;226.50;231333.00;;;;5030386;28;20194;-74
2022/12/29 09:43:12;;;;;;;0.00;0.00;;;10.20;99.90;226.50;231333.00;;;;5023885;28;20191;-75
2022/12/29 09:45:46;;;;;;;0.10;0.10;;;10.20;99.90;226.50;231333.00;;;;5025034;28;20735;-74
2022/12/29 09:48:20;;;;;;;0.10;0.10;;;10.30;99.90;226.50;231333.00;;;;5034914;28;20253;-75
2022/12/29 09:50:57;;;;;;;0.10;0.10;;;10.30;99.90;226.50;231333.00;;;;5040362;28;20194;-74
2022/12/29 09:53:31;;;;;;;0.10;0.10;;;10.30;99.90;226.50;231333.00;;;;5047572;28;20190;-74
2022/12/29 09:56:03;;;;;;;0.10;0.10;;;10.40;99.90;226.50;231333.00;;;;5042184;28;20222;-74
2022/12/29 09:58:40;;;;;;;0.10;0.10;;;10.50;99.90;226.50;231333.00;;;;5033207;28;20198;-74
2022/12/29 10:01:21;;;;;;;0.10;0.10;;;10.50;99.90;226.50;231333.00;;;;5027549;28;20199;-74
2022/12/29 10:03:53;;;;;;;0.10;0.10;;;10.60;99.90;226.50;231333.00;;;;5023182;28;20263;-75
2022/12/29 10:06:30;;;;;;;0.10;0.10;;;10.60;99.90;226.50;231333.00;;;;5031065;28;20238;-75
2022/12/29 10:09:11;;;;;;;0.10;0.10;;;10.70;99.90;226.50;231333.00;;;;5043532;28;20251;-72
2022/12/29 10:12:03;;;;;;;0.10;0.10;;;10.70;99.90;226.50;231333.00;;;;5039506;28;20209;-73
2022/12/29 10:14:54;;;;;;;0.10;0.10;;;10.70;99.90;226.50;231333.00;;;;5036161;28;20253;-73
2022/12/29 10:17:33;;;;;;;0.10;0.10;;;10.80;99.90;226.50;231333.00;;;;5045147;28;20241;-73
2022/12/29 10:20:28;;;;;;;0.10;0.10;;;10.80;99.90;226.50;231333.00;;;;5038842;28;20262;-73
2022/12/29 10:23:23;;;;;;;0.00;0.00;;;10.80;99.90;226.50;231333.00;;;;5026951;28;20231;-73
2022/12/29 10:25:56;;;;;;;0.10;0.10;;;10.80;99.90;226.50;231333.00;;;;5019293;28;20282;-74
2022/12/29 10:28:35;;;;;;;0.10;0.10;;;10.80;99.90;226.50;231333.00;;;;5027908;28;20199;-74
2022/12/29 10:31:08;;;;;;;0.10;0.10;;;10.90;99.90;226.50;231333.00;;;;5035761;28;20257;-74
2022/12/29 10:33:43;;;;;;;0.10;0.10;;;10.90;99.90;226.50;231333.00;;;;5032854;28;20198;-74
2022/12/29 10:36:18;;;;;;;0.10;0.10;;;10.90;99.90;226.50;231333.00;;;;5036229;28;20226;-74
2022/12/29 10:39:04;;;;;;;0.10;0.10;;;10.90;99.90;226.50;231333.00;;;;5034767;28;20531;-73
2022/12/29 10:41:40;;;;;;;0.00;0.00;;;10.90;99.90;226.50;231333.00;;;;5034868;28;20260;-73
2022/12/29 10:44:14;;;;;;;0.00;0.00;;;11.00;99.90;226.50;231333.00;;;;5036767;28;20666;-75
2022/12/29 10:46:44;;;;;;;0.08;0.08;;;11.00;99.90;226.50;231333.00;;;;5021476;28;20265;-73
2022/12/29 10:49:19;;;;;;;0.10;0.10;;;11.00;99.90;226.50;231333.00;;;;5021290;28;20218;-74
2022/12/29 10:51:52;;;;;;;0.10;0.10;;;11.10;99.90;226.50;231333.00;;;;5040952;28;20199;-74
2022/12/29 10:54:28;;;;;;;0.10;0.10;;;11.10;99.90;226.50;231333.00;;;;5039516;28;20201;-74
2022/12/29 10:57:03;;;;;;;0.10;0.10;;;11.20;99.90;226.50;231333.00;;;;5030742;28;20630;-74
2022/12/29 10:59:36;;;;;;;0.10;0.10;;;11.10;99.90;226.50;231333.00;;;;5041652;28;20260;-74
2022/12/29 11:02:34;;;;;;;0.10;0.10;;;11.20;99.90;226.50;231333.00;;;;5027353;28;20253;-74
2022/12/29 11:05:10;;;;;;;0.10;0.10;;;11.20;99.90;226.50;231333.00;;;;5032294;28;20241;-74
2022/12/29 11:07:39;;;;;;;0.10;0.10;;;11.30;99.90;226.50;231333.00;;;;5032221;28;20230;-74
2022/12/29 11:10:34;;;;;;;0.10;0.10;;;11.30;99.90;226.50;231333.00;;;;5038093;28;20199;-73
2022/12/29 11:13:11;;;;;;;0.10;0.10;;;11.30;99.90;226.50;231333.00;;;;5034463;28;20248;-74
2022/12/29 11:15:42;;;;;;;0.10;0.10;;;11.30;99.90;226.50;231333.00;;;;5030660;28;20195;-74
2022/12/29 11:18:22;;;;;;;0.08;0.08;;;11.30;99.90;226.50;231333.00;;;;5040083;28;20689;-75
2022/12/29 11:20:54;;;;;;;0.10;0.10;;;11.30;99.90;226.50;231333.00;;;;5034200;28;20198;-74
2022/12/29 11:23:31;;;;;;;0.00;0.00;;;11.30;99.90;226.50;231333.00;;;;5044001;28;20195;-74
2022/12/29 11:26:25;;;;;;;0.10;0.10;;;11.30;99.90;226.50;231333.00;;;;5038210;28;20222;-73
2022/12/29 11:29:20;;;;;;;0.10;0.10;;;11.40;99.90;226.50;231333.00;;;;5032340;28;20215;-74
2022/12/29 11:31:51;;;;;;;0.10;0.10;;;11.40;99.90;226.50;231333.00;;;;5031353;28;20202;-76
2022/12/29 11:34:23;;;;;;;0.10;0.10;;;11.40;99.90;226.50;231333.00;;;;5038968;28;20277;-75
2022/12/29 11:36:54;;;;;;;0.10;0.10;;;11.40;99.90;226.50;231333.00;;;;5038244;28;20250;-75
2022/12/29 11:39:35;;;;;;;0.10;0.10;;;11.40;99.90;226.50;231333.00;;;;5028607;28;20270;-75
2022/12/29 11:42:09;;;;;;;0.10;0.10;;;11.40;99.90;226.50;231333.00;;;;5041049;28;20190;-76
2022/12/29 11:44:44;;;;;;;0.10;0.10;;;11.50;99.90;226.50;231333.00;;;;5031890;28;20197;-74
2022/12/29 11:47:26;;;;;;;0.10;0.10;;;11.50;99.90;226.50;231333.00;;;;5029928;28;20226;-74
2022/12/29 11:49:59;;;;;;;0.10;0.10;;;11.60;99.90;226.50;231333.00;;;;5039968;28;20253;-75
2022/12/29 11:52:32;;;;;;;0.10;0.10;;;11.60;99.90;226.50;231333.00;;;;5047655;28;20606;-74